createdAt,value
2019-02-14T00:04:02.868Z,5.20
2019-02-14T00:09:09.967Z,5.20
2019-02-14T00:14:17.166Z,5.30
2019-02-14T00:19:24.587Z,5.30
2019-02-14T00:24:31.957Z,5.30
2019-02-14T00:29:39.123Z,5.30
2019-02-14T00:34:46.322Z,5.10
2019-02-14T00:39:53.731Z,5.20
2019-02-14T00:45:01.073Z,5.20
2019-02-14T00:50:08.959Z,5.20
2019-02-14T00:55:16.266Z,5.30
2019-02-14T01:00:24.414Z,5.30
2019-02-14T01:05:33.653Z,5.30
2019-02-14T01:10:40.176Z,5.40
2019-02-14T01:15:47.275Z,5.40
2019-02-14T01:20:54.596Z,5.40
2019-02-14T01:26:02.045Z,5.30
2019-02-14T01:31:10.069Z,5.30
2019-02-14T01:36:17.406Z,5.40
2019-02-14T01:41:24.625Z,5.40
2019-02-14T01:46:32.201Z,5.40
2019-02-14T01:51:39.396Z,5.40
2019-02-14T01:56:46.499Z,5.30
2019-02-14T02:01:53.605Z,5.40
2019-02-14T02:07:00.875Z,5.30
2019-02-14T02:12:08.248Z,5.30
2019-02-14T02:17:15.858Z,5.30
2019-02-14T02:22:23.323Z,5.30
2019-02-14T02:27:31.236Z,5.40
2019-02-14T02:32:38.609Z,5.30
2019-02-14T02:37:45.716Z,5.40
2019-02-14T02:42:52.937Z,5.40
2019-02-14T02:48:01.014Z,5.50
2019-02-14T02:53:08.326Z,5.50
2019-02-14T02:58:15.616Z,5.40
2019-02-14T03:03:22.844Z,5.40
2019-02-14T03:08:30.051Z,5.50
2019-02-14T03:13:37.247Z,5.50
2019-02-14T03:18:44.358Z,5.50
2019-02-14T03:23:51.515Z,5.50
2019-02-14T03:28:58.743Z,5.60
2019-02-14T03:34:05.922Z,5.70
2019-02-14T03:39:13.144Z,5.60
2019-02-14T03:44:20.321Z,5.60
2019-02-14T03:49:27.445Z,5.60
2019-02-14T03:54:34.657Z,5.60
2019-02-14T03:59:41.829Z,5.50
2019-02-14T04:10:27.678Z,5.60
2019-02-14T04:15:35.000Z,5.60
2019-02-14T04:20:42.098Z,5.60
2019-02-14T04:25:49.353Z,5.60
2019-02-14T04:30:56.529Z,5.60
2019-02-14T04:36:03.594Z,5.60
2019-02-14T04:41:10.697Z,5.60
2019-02-14T04:46:17.786Z,5.50
2019-02-14T04:51:24.964Z,5.50
2019-02-14T04:56:32.199Z,5.50
2019-02-14T05:01:39.392Z,5.60
2019-02-14T05:06:46.736Z,5.70
2019-02-14T05:11:53.826Z,5.80
2019-02-14T05:17:01.042Z,5.70
2019-02-14T05:22:08.279Z,5.80
2019-02-14T05:27:15.477Z,5.90
2019-02-14T05:32:22.968Z,5.80
2019-02-14T05:37:30.072Z,5.90
2019-02-14T05:42:37.144Z,5.80
2019-02-14T05:47:44.254Z,5.70
2019-02-14T05:52:51.454Z,5.80
2019-02-14T05:57:58.669Z,5.80
2019-02-14T06:03:05.877Z,5.80
2019-02-14T06:08:12.947Z,5.80
2019-02-14T06:13:20.153Z,5.80
2019-02-14T06:18:27.358Z,5.80
2019-02-14T06:23:35.560Z,5.80
2019-02-14T06:28:42.756Z,5.80
2019-02-14T06:33:49.956Z,5.80
2019-02-14T06:38:57.152Z,5.70
2019-02-14T06:44:04.260Z,5.70
2019-02-14T06:49:12.612Z,5.90
2019-02-14T06:54:19.841Z,5.90
2019-02-14T06:59:28.131Z,6.00
2019-02-14T07:04:35.323Z,6.00
2019-02-14T07:09:42.919Z,6.00
2019-02-14T07:14:50.087Z,6.10
2019-02-14T07:19:57.283Z,6.10
2019-02-14T07:25:05.181Z,6.00
2019-02-14T07:30:15.003Z,6.10
2019-02-14T07:35:22.427Z,6.10
2019-02-14T07:40:31.570Z,6.10
2019-02-14T07:45:39.020Z,6.20
2019-02-14T07:50:46.129Z,6.30
2019-02-14T07:55:53.247Z,6.30
2019-02-14T08:01:00.505Z,6.30
2019-02-14T08:06:08.092Z,6.30
2019-02-14T08:11:15.221Z,6.40
2019-02-14T08:16:22.622Z,6.40
2019-02-14T08:21:29.725Z,6.40
2019-02-14T08:26:36.832Z,6.50
2019-02-14T08:31:44.302Z,6.40
2019-02-14T08:36:51.480Z,6.30
2019-02-14T08:41:58.676Z,6.20
2019-02-14T08:47:05.883Z,6.10
2019-02-14T08:52:13.099Z,6.10
2019-02-14T08:57:20.228Z,6.20
2019-02-14T09:02:27.316Z,6.10
2019-02-14T09:07:34.633Z,6.00
2019-02-14T09:12:41.745Z,6.00
2019-02-14T09:17:48.817Z,6.00
2019-02-14T09:22:56.049Z,6.00
2019-02-14T09:28:03.199Z,6.00
2019-02-14T09:33:10.293Z,6.10
2019-02-14T09:38:17.380Z,6.10
2019-02-14T09:43:29.944Z,6.20
2019-02-14T09:48:34.200Z,6.10
2019-02-14T09:53:41.335Z,6.20
2019-02-14T09:58:49.548Z,6.30
2019-02-14T10:03:56.778Z,6.30
2019-02-14T10:09:06.071Z,6.30
2019-02-14T10:14:13.128Z,6.40
2019-02-14T10:19:20.736Z,6.40
2019-02-14T10:24:28.069Z,6.40
2019-02-14T10:29:35.155Z,6.50
2019-02-14T10:34:42.440Z,6.40
2019-02-14T10:39:49.667Z,6.40
2019-02-14T10:44:56.801Z,6.40
2019-02-14T10:50:04.031Z,6.30
2019-02-14T10:55:11.703Z,6.30
2019-02-14T11:00:20.935Z,6.40
2019-02-14T11:05:28.267Z,6.30
2019-02-14T11:10:35.779Z,6.30
2019-02-14T11:15:43.039Z,6.30
2019-02-14T11:20:50.199Z,6.30
2019-02-14T11:25:59.125Z,6.30
2019-02-14T11:31:08.611Z,6.40
2019-02-14T11:36:15.697Z,6.40
2019-02-14T11:41:22.825Z,6.50
2019-02-14T11:46:29.984Z,6.50
2019-02-14T11:51:37.068Z,6.50
2019-02-14T11:56:44.313Z,6.40
2019-02-14T12:01:55.394Z,6.40
2019-02-14T12:07:00.956Z,6.40
2019-02-14T12:12:08.435Z,6.40
2019-02-14T12:17:15.568Z,6.30
2019-02-14T12:22:22.792Z,6.30
2019-02-14T12:27:30.027Z,6.40
2019-02-14T12:32:37.243Z,6.30
2019-02-14T12:37:44.464Z,6.30
2019-02-14T12:42:52.037Z,6.30
2019-02-14T12:47:59.228Z,6.30
2019-02-14T12:53:06.346Z,6.30
2019-02-14T12:58:13.593Z,6.30
2019-02-14T13:03:20.901Z,6.20
2019-02-14T13:08:28.221Z,6.30
2019-02-14T13:13:35.365Z,6.30
2019-02-14T13:18:43.363Z,6.20
2019-02-14T13:23:50.663Z,6.20
2019-02-14T13:28:57.731Z,6.20
2019-02-14T13:34:04.836Z,6.30
2019-02-14T13:39:12.016Z,6.20
2019-02-14T13:44:19.561Z,6.20
2019-02-14T13:49:26.670Z,6.30
2019-02-14T13:54:34.239Z,6.40
2019-02-14T13:59:41.389Z,6.30
2019-02-14T14:04:48.734Z,6.40
2019-02-14T14:09:55.952Z,6.40
2019-02-14T14:15:03.203Z,6.40
2019-02-14T14:20:11.920Z,6.40
2019-02-14T14:25:20.000Z,6.40
2019-02-14T14:30:27.090Z,6.40
2019-02-14T14:35:34.209Z,6.40
2019-02-14T14:40:41.464Z,6.30
2019-02-14T14:46:02.015Z,6.30
2019-02-14T14:51:09.113Z,6.20
2019-02-14T14:56:16.335Z,6.30
2019-02-14T15:01:23.415Z,6.20
2019-02-14T15:06:30.516Z,6.10
2019-02-14T15:11:37.613Z,6.10
2019-02-14T15:16:45.009Z,6.00
2019-02-14T15:21:52.159Z,6.00
2019-02-14T15:26:59.338Z,6.00
2019-02-14T15:32:06.473Z,6.00
2019-02-14T15:37:15.348Z,6.10
2019-02-14T15:42:22.631Z,6.10
2019-02-14T15:47:30.872Z,6.10
2019-02-14T15:52:38.024Z,6.10
2019-02-14T15:57:45.267Z,6.10
2019-02-14T16:02:52.576Z,6.10
2019-02-14T16:08:00.494Z,6.10
2019-02-14T16:13:09.861Z,6.10
2019-02-14T16:18:17.484Z,6.10
2019-02-14T16:23:24.692Z,6.10
2019-02-14T16:28:31.833Z,6.00
2019-02-14T16:33:38.897Z,5.90
2019-02-14T16:38:46.016Z,5.90
2019-02-14T16:43:53.103Z,5.80
2019-02-14T16:49:00.332Z,5.80
2019-02-14T16:54:07.687Z,5.80
2019-02-14T16:59:14.791Z,5.80
2019-02-14T17:04:22.707Z,5.70
2019-02-14T17:09:29.817Z,5.80
2019-02-14T17:14:37.122Z,5.80
2019-02-14T17:19:44.203Z,5.70
2019-02-14T17:24:51.530Z,5.70
2019-02-14T17:29:58.712Z,5.70
2019-02-14T17:35:06.380Z,5.70
2019-02-14T17:40:13.548Z,5.70
2019-02-14T17:45:20.777Z,5.70
2019-02-14T17:50:27.890Z,5.70
2019-02-14T17:55:35.303Z,5.60
2019-02-14T18:00:43.021Z,5.70
2019-02-14T18:05:50.205Z,5.60
2019-02-14T18:10:57.447Z,5.70
2019-02-14T18:16:04.598Z,5.60
2019-02-14T18:21:11.706Z,5.60
2019-02-14T18:26:19.194Z,5.70
2019-02-14T18:31:26.473Z,5.70
2019-02-14T18:36:33.784Z,5.60
2019-02-14T18:41:40.976Z,5.60
2019-02-14T18:46:52.856Z,5.60
2019-02-14T18:52:01.301Z,5.60
2019-02-14T18:57:09.414Z,5.70
2019-02-14T19:02:16.501Z,5.70
2019-02-14T19:07:23.697Z,5.60
2019-02-14T19:12:31.149Z,5.70
2019-02-14T19:17:39.362Z,5.60
2019-02-14T19:22:46.502Z,5.60
2019-02-14T19:27:54.559Z,5.60
2019-02-14T19:33:01.681Z,5.60
2019-02-14T19:38:09.995Z,5.60
2019-02-14T19:43:17.596Z,5.60
2019-02-14T19:48:24.843Z,5.60
2019-02-14T19:53:31.969Z,5.60
2019-02-14T19:58:39.201Z,5.50
2019-02-14T20:03:46.403Z,5.50
2019-02-14T20:08:53.528Z,5.60
2019-02-14T20:14:00.687Z,5.60
2019-02-14T20:19:08.057Z,5.50
2019-02-14T20:24:15.274Z,5.60
2019-02-14T20:29:22.543Z,5.60
2019-02-14T20:34:29.736Z,5.60
2019-02-14T20:39:37.040Z,5.60
2019-02-14T20:44:44.170Z,5.60
2019-02-14T20:49:51.260Z,5.60
2019-02-14T20:54:58.547Z,5.60
2019-02-14T21:00:07.956Z,5.50
2019-02-14T21:05:16.396Z,5.50
2019-02-14T21:10:23.714Z,5.60
2019-02-14T21:15:31.281Z,5.60
2019-02-14T21:20:38.430Z,5.60
2019-02-14T21:25:46.750Z,5.70
2019-02-14T21:30:53.964Z,5.70
2019-02-14T21:36:01.219Z,5.70
2019-02-14T21:41:08.655Z,5.70
2019-02-14T21:46:15.966Z,5.70
2019-02-14T21:51:23.224Z,5.70
2019-02-14T21:56:30.564Z,5.70
2019-02-14T22:01:37.732Z,5.70
2019-02-14T22:06:44.881Z,5.60
2019-02-14T22:11:51.998Z,5.70
2019-02-14T22:16:59.105Z,5.70
2019-02-14T22:22:06.254Z,5.70
2019-02-14T22:27:13.569Z,5.80
2019-02-14T22:32:20.705Z,5.70
2019-02-14T22:37:27.867Z,5.70
2019-02-14T22:42:35.073Z,5.70
2019-02-14T22:47:42.326Z,5.70
2019-02-14T22:52:49.535Z,5.70
2019-02-14T22:57:57.179Z,5.80
2019-02-14T23:03:04.359Z,5.80
2019-02-14T23:08:11.424Z,5.80
2019-02-14T23:13:18.632Z,5.80
2019-02-14T23:18:26.263Z,5.70
2019-02-14T23:23:33.829Z,5.90
2019-02-14T23:28:40.959Z,5.90
2019-02-14T23:33:48.227Z,5.90
2019-02-14T23:38:55.467Z,5.90
2019-02-14T23:44:02.584Z,5.90
2019-02-14T23:49:09.697Z,5.80
2019-02-14T23:54:17.013Z,5.90
2019-02-14T23:59:24.409Z,5.90
